createdAt,value
2022-12-31T06:55:35.411Z,100.00
2022-12-31T06:56:42.304Z,100.00
2022-12-31T06:57:46.063Z,100.00
2022-12-31T06:58:49.681Z,100.00
2022-12-31T06:59:54.016Z,100.00
2022-12-31T07:01:09.938Z,100.00
2022-12-31T07:02:25.127Z,100.00
2022-12-31T07:03:30.576Z,100.00
2022-12-31T07:04:35.404Z,100.00
2022-12-31T07:05:52.940Z,100.00
2022-12-31T07:07:13.363Z,100.00
2022-12-31T07:08:21.654Z,100.00
2022-12-31T07:09:32.799Z,100.00
2022-12-31T07:10:37.915Z,100.00
2022-12-31T07:12:00.152Z,100.00
2022-12-31T07:13:14.865Z,100.00
2022-12-31T07:14:20.117Z,100.00
2022-12-31T07:15:29.873Z,100.00
2022-12-31T07:16:40.784Z,100.00
2022-12-31T07:17:54.760Z,100.00
2022-12-31T07:20:25.796Z,100.00
2022-12-31T07:21:34.949Z,100.00
2022-12-31T07:22:40.233Z,100.00
2022-12-31T07:23:44.111Z,100.00
2022-12-31T07:24:48.679Z,100.00
2022-12-31T07:25:54.950Z,100.00
2022-12-31T07:27:04.470Z,100.00
2022-12-31T07:28:14.040Z,100.00
2022-12-31T07:29:23.290Z,100.00
2022-12-31T07:30:45.502Z,100.00
2022-12-31T07:32:02.044Z,100.00
2022-12-31T07:33:16.425Z,100.00
2022-12-31T07:34:22.343Z,100.00
2022-12-31T07:35:35.184Z,100.00
2022-12-31T07:36:48.453Z,100.00
2022-12-31T07:37:56.552Z,100.00
2022-12-31T07:39:07.782Z,100.00
2022-12-31T07:40:14.526Z,100.00
2022-12-31T07:41:20.546Z,100.00
2022-12-31T07:42:31.667Z,100.00
2022-12-31T07:43:38.818Z,100.00
2022-12-31T07:44:44.118Z,100.00
2022-12-31T07:45:49.288Z,100.00
2022-12-31T07:46:57.403Z,100.00
2022-12-31T07:48:02.946Z,100.00
2022-12-31T07:49:08.144Z,100.00
2022-12-31T07:50:16.180Z,100.00
2022-12-31T07:51:18.928Z,100.00
2022-12-31T07:52:21.897Z,100.00
2022-12-31T07:53:26.080Z,100.00
2022-12-31T07:54:29.651Z,100.00
2022-12-31T07:55:32.945Z,100.00
2022-12-31T07:56:36.561Z,100.00
2022-12-31T07:57:55.622Z,100.00
2022-12-31T07:59:10.722Z,100.00
2022-12-31T08:00:14.643Z,100.00
2022-12-31T08:01:20.961Z,100.00
2022-12-31T08:02:31.607Z,100.00
2022-12-31T08:05:14.916Z,100.00
2022-12-31T08:06:37.495Z,100.00
2022-12-31T08:07:52.121Z,100.00
2022-12-31T08:09:00.325Z,100.00
2022-12-31T08:10:04.751Z,94.83
2022-12-31T08:11:27.710Z,86.82
2022-12-31T08:12:32.262Z,82.00
2022-12-31T08:13:35.768Z,79.63
2022-12-31T08:14:41.049Z,78.97
2022-12-31T08:15:44.866Z,78.71
2022-12-31T08:16:48.517Z,77.70
2022-12-31T08:17:51.248Z,76.57
2022-12-31T08:18:54.847Z,78.72
2022-12-31T08:19:58.055Z,77.41
2022-12-31T08:21:20.043Z,76.90
2022-12-31T08:22:25.332Z,77.59
2022-12-31T08:23:30.708Z,77.52
2022-12-31T08:24:48.005Z,75.48
2022-12-31T08:25:56.968Z,73.88
2022-12-31T08:27:05.247Z,70.22
2022-12-31T08:28:16.377Z,70.06
2022-12-31T08:29:33.460Z,68.59
2022-12-31T08:30:55.558Z,66.80
2022-12-31T08:32:18.696Z,64.67
2022-12-31T08:33:41.629Z,62.52
2022-12-31T08:34:47.109Z,63.06
2022-12-31T08:36:07.649Z,62.61
2022-12-31T08:37:14.497Z,63.11
2022-12-31T08:38:23.009Z,65.78
2022-12-31T08:39:32.141Z,67.74
2022-12-31T08:40:37.338Z,71.73
2022-12-31T08:41:45.750Z,74.78
2022-12-31T08:42:50.930Z,77.13
2022-12-31T08:43:59.959Z,80.82
2022-12-31T08:45:09.321Z,84.02
2022-12-31T08:46:18.675Z,87.69
2022-12-31T08:47:38.645Z,90.70
2022-12-31T08:48:43.763Z,96.54
2022-12-31T08:49:47.118Z,100.00
2022-12-31T08:50:50.149Z,100.00
2022-12-31T08:51:54.319Z,100.00
2022-12-31T08:52:58.192Z,100.00
2022-12-31T08:54:01.676Z,100.00
2022-12-31T08:55:05.653Z,100.00
2022-12-31T08:56:14.273Z,100.00
2022-12-31T08:57:30.633Z,100.00
2022-12-31T08:59:57.058Z,100.00
2022-12-31T09:01:01.050Z,100.00
2022-12-31T09:02:23.037Z,100.00
2022-12-31T09:03:28.116Z,100.00
2022-12-31T09:04:46.379Z,100.00
2022-12-31T09:06:03.847Z,100.00
2022-12-31T09:07:08.585Z,100.00
2022-12-31T09:08:18.927Z,100.00
2022-12-31T09:09:24.087Z,100.00
2022-12-31T09:10:31.980Z,100.00
2022-12-31T09:11:37.105Z,100.00
2022-12-31T09:12:46.011Z,100.00
2022-12-31T09:14:03.162Z,100.00
2022-12-31T09:15:11.497Z,100.00
2022-12-31T09:16:17.007Z,100.00
2022-12-31T09:17:22.379Z,100.00
2022-12-31T09:18:32.882Z,100.00
2022-12-31T09:19:36.788Z,100.00
2022-12-31T09:20:43.914Z,100.00
2022-12-31T09:21:47.774Z,100.00
2022-12-31T09:22:54.397Z,100.00
2022-12-31T09:23:58.243Z,100.00
2022-12-31T09:25:01.730Z,100.00
2022-12-31T09:26:15.682Z,100.00
2022-12-31T09:27:28.025Z,100.00
2022-12-31T09:28:39.390Z,100.00
2022-12-31T09:29:53.351Z,100.00
2022-12-31T09:31:01.866Z,100.00
2022-12-31T09:32:26.365Z,100.00
2022-12-31T09:33:51.701Z,100.00
2022-12-31T09:34:56.252Z,100.00
2022-12-31T09:36:01.530Z,100.00
2022-12-31T09:37:05.776Z,100.00
2022-12-31T09:38:21.903Z,100.00
2022-12-31T09:39:42.647Z,100.00
2022-12-31T09:40:49.807Z,100.00
2022-12-31T09:41:57.800Z,100.00
2022-12-31T09:43:17.716Z,100.00
2022-12-31T09:44:38.539Z,100.00
2022-12-31T09:45:50.124Z,100.00
2022-12-31T09:47:10.421Z,100.00
2022-12-31T09:48:18.834Z,100.00
2022-12-31T09:49:26.937Z,100.00
2022-12-31T09:50:36.175Z,100.00
2022-12-31T09:51:42.300Z,100.00
2022-12-31T09:52:56.983Z,100.00
2022-12-31T09:54:09.780Z,100.00
2022-12-31T09:55:17.506Z,100.00
2022-12-31T09:56:24.636Z,100.00
2022-12-31T09:57:30.683Z,100.00
2022-12-31T09:58:51.587Z,100.00
2022-12-31T09:59:57.012Z,100.00
2022-12-31T10:01:19.414Z,100.00
2022-12-31T10:02:24.483Z,100.00
2022-12-31T10:03:44.815Z,100.00
2022-12-31T10:04:54.757Z,100.00
2022-12-31T10:06:04.964Z,100.00
2022-12-31T10:07:29.353Z,100.00
2022-12-31T10:08:37.403Z,100.00
2022-12-31T10:09:50.218Z,100.00
2022-12-31T10:10:59.514Z,100.00
2022-12-31T10:12:07.394Z,100.00
2022-12-31T10:13:20.969Z,100.00
2022-12-31T10:14:41.074Z,100.00
2022-12-31T10:15:50.915Z,100.00
2022-12-31T10:17:05.193Z,100.00
2022-12-31T10:18:17.407Z,100.00
2022-12-31T10:19:39.114Z,100.00
2022-12-31T10:20:59.658Z,100.00
2022-12-31T10:22:04.714Z,100.00
2022-12-31T10:23:21.737Z,100.00
2022-12-31T10:24:36.125Z,100.00
2022-12-31T10:25:41.182Z,100.00
2022-12-31T10:26:53.386Z,100.00
2022-12-31T10:27:57.864Z,100.00
2022-12-31T10:30:20.211Z,100.00
2022-12-31T10:31:28.346Z,100.00
2022-12-31T10:32:44.893Z,100.00
2022-12-31T10:34:07.405Z,100.00
2022-12-31T10:35:11.968Z,100.00
2022-12-31T10:36:25.182Z,100.00
2022-12-31T10:37:31.312Z,100.00
2022-12-31T10:38:36.181Z,100.00
2022-12-31T10:39:46.340Z,100.00
2022-12-31T10:41:02.689Z,100.00
2022-12-31T10:42:07.636Z,100.00
2022-12-31T10:43:28.408Z,100.00
2022-12-31T10:44:49.696Z,100.00
2022-12-31T10:46:02.503Z,100.00
2022-12-31T10:47:26.201Z,100.00
2022-12-31T10:48:37.372Z,100.00
2022-12-31T10:49:46.318Z,100.00
2022-12-31T10:50:50.447Z,100.00
2022-12-31T10:53:36.612Z,100.00
2022-12-31T10:54:41.043Z,100.00
2022-12-31T10:55:54.700Z,100.00
2022-12-31T10:57:00.587Z,100.00
2022-12-31T10:58:10.880Z,100.00
2022-12-31T10:59:18.776Z,100.00
2022-12-31T11:00:23.128Z,100.00
2022-12-31T11:01:28.914Z,100.00
2022-12-31T11:02:41.632Z,100.00
2022-12-31T11:04:00.150Z,100.00
2022-12-31T11:06:18.982Z,100.00
2022-12-31T11:07:23.939Z,100.00
2022-12-31T11:08:37.747Z,100.00
2022-12-31T11:10:00.508Z,100.00
2022-12-31T11:11:14.486Z,100.00
2022-12-31T11:12:27.573Z,100.00
2022-12-31T11:13:32.757Z,100.00
2022-12-31T11:14:39.917Z,100.00
2022-12-31T11:16:00.677Z,100.00
2022-12-31T11:17:10.672Z,100.00
2022-12-31T11:18:24.578Z,100.00
2022-12-31T11:19:32.960Z,100.00
2022-12-31T11:20:43.082Z,100.00
2022-12-31T11:21:48.473Z,100.00
2022-12-31T11:22:55.114Z,100.00
2022-12-31T11:24:00.304Z,100.00
2022-12-31T11:25:13.298Z,100.00
2022-12-31T11:26:34.980Z,100.00
2022-12-31T11:28:01.846Z,100.00
2022-12-31T11:29:11.902Z,100.00
2022-12-31T11:30:31.337Z,100.00
2022-12-31T11:31:51.875Z,100.00
2022-12-31T11:33:03.107Z,100.00
2022-12-31T11:34:17.268Z,100.00
2022-12-31T11:35:40.607Z,100.00
2022-12-31T11:36:45.297Z,100.00
2022-12-31T11:39:05.651Z,100.00
2022-12-31T11:40:11.129Z,100.00
2022-12-31T11:41:15.262Z,100.00
2022-12-31T11:42:35.207Z,100.00
2022-12-31T11:43:43.904Z,100.00
2022-12-31T11:44:57.847Z,100.00
2022-12-31T11:46:11.106Z,100.00
2022-12-31T11:47:38.088Z,100.00
2022-12-31T11:48:43.045Z,100.00
2022-12-31T11:49:48.326Z,100.00
2022-12-31T11:50:54.542Z,100.00
2022-12-31T11:52:21.611Z,100.00
2022-12-31T11:53:27.127Z,100.00
2022-12-31T11:54:49.556Z,100.00
2022-12-31T11:55:54.326Z,100.00
2022-12-31T11:57:00.539Z,100.00
2022-12-31T11:58:05.711Z,100.00
2022-12-31T11:59:18.691Z,100.00
2022-12-31T12:00:22.767Z,100.00
2022-12-31T12:01:28.895Z,100.00
2022-12-31T12:02:39.638Z,100.00
2022-12-31T12:03:45.429Z,100.00
2022-12-31T12:04:50.764Z,100.00
2022-12-31T12:05:56.150Z,100.00
2022-12-31T12:07:00.933Z,100.00
2022-12-31T12:09:18.595Z,100.00
2022-12-31T12:10:27.851Z,100.00
2022-12-31T12:11:35.019Z,100.00
2022-12-31T12:12:39.218Z,100.00
2022-12-31T12:13:43.567Z,100.00
2022-12-31T12:14:48.839Z,100.00
2022-12-31T12:15:56.569Z,100.00
2022-12-31T12:17:05.258Z,100.00
2022-12-31T12:18:09.180Z,100.00
2022-12-31T12:19:14.561Z,100.00
2022-12-31T12:20:21.705Z,100.00
2022-12-31T12:21:25.208Z,100.00
2022-12-31T12:22:29.043Z,100.00
2022-12-31T12:23:33.696Z,100.00
2022-12-31T12:24:37.228Z,100.00
2022-12-31T12:25:41.654Z,100.00
2022-12-31T12:26:45.775Z,100.00
2022-12-31T12:27:49.133Z,100.00
2022-12-31T12:28:51.364Z,100.00
2022-12-31T12:29:55.489Z,100.00
2022-12-31T12:31:00.532Z,100.00
2022-12-31T12:32:08.853Z,100.00
2022-12-31T12:33:14.107Z,100.00
2022-12-31T12:34:24.829Z,100.00
2022-12-31T12:35:35.643Z,100.00
2022-12-31T12:36:43.062Z,100.00
2022-12-31T12:37:46.334Z,100.00
2022-12-31T12:38:52.423Z,100.00
2022-12-31T12:39:56.767Z,100.00
2022-12-31T12:41:01.135Z,100.00
2022-12-31T12:42:05.655Z,100.00
2022-12-31T12:43:09.668Z,100.00
2022-12-31T12:44:20.406Z,100.00
2022-12-31T12:45:25.160Z,100.00
2022-12-31T12:46:31.556Z,100.00
2022-12-31T12:47:37.389Z,100.00
2022-12-31T12:48:41.794Z,100.00
2022-12-31T12:49:47.004Z,100.00
2022-12-31T12:50:53.909Z,100.00
2022-12-31T12:52:04.661Z,100.00
2022-12-31T12:53:12.923Z,100.00
2022-12-31T12:54:36.541Z,100.00
2022-12-31T12:55:45.573Z,100.00
2022-12-31T12:56:53.892Z,100.00
2022-12-31T12:58:01.999Z,100.00
2022-12-31T12:59:09.981Z,100.00
2022-12-31T13:00:14.212Z,100.00
2022-12-31T13:01:30.223Z,100.00
2022-12-31T13:02:46.534Z,100.00
2022-12-31T13:04:32.949Z,100.00
2022-12-31T13:05:13.359Z,100.00
2022-12-31T13:06:24.704Z,100.00
2022-12-31T13:07:33.765Z,100.00
2022-12-31T13:08:45.123Z,100.00
2022-12-31T13:09:49.724Z,100.00
2022-12-31T13:10:58.992Z,100.00
2022-12-31T13:12:07.493Z,100.00
2022-12-31T13:13:24.238Z,100.00
2022-12-31T13:14:28.114Z,100.00
2022-12-31T13:15:32.324Z,100.00
2022-12-31T13:16:37.670Z,100.00
2022-12-31T13:17:55.064Z,100.00
2022-12-31T13:19:13.738Z,100.00
2022-12-31T13:20:22.915Z,100.00
2022-12-31T13:21:45.768Z,100.00
2022-12-31T13:22:51.009Z,100.00
2022-12-31T13:24:01.213Z,100.00
2022-12-31T13:25:09.294Z,100.00
2022-12-31T13:26:17.360Z,100.00
2022-12-31T13:27:32.509Z,100.00
2022-12-31T13:28:36.129Z,100.00
2022-12-31T13:29:42.116Z,100.00
2022-12-31T13:30:46.094Z,100.00
2022-12-31T13:31:50.787Z,100.00
2022-12-31T13:32:55.157Z,100.00
2022-12-31T13:34:01.474Z,100.00
2022-12-31T13:35:05.654Z,100.00
2022-12-31T13:36:11.839Z,100.00
2022-12-31T13:37:26.089Z,100.00
2022-12-31T13:38:36.808Z,100.00
2022-12-31T13:39:42.489Z,100.00
2022-12-31T13:40:47.559Z,100.00
2022-12-31T13:41:53.894Z,100.00
2022-12-31T13:43:10.446Z,100.00
2022-12-31T13:44:31.613Z,100.00
2022-12-31T13:45:37.050Z,100.00
2022-12-31T13:47:00.245Z,100.00
2022-12-31T13:48:08.193Z,100.00
2022-12-31T13:49:24.379Z,100.00
2022-12-31T13:50:36.245Z,100.00
2022-12-31T13:51:45.189Z,100.00
2022-12-31T13:53:05.711Z,100.00
2022-12-31T13:54:12.965Z,100.00
2022-12-31T13:55:18.152Z,100.00
2022-12-31T13:56:24.472Z,100.00
2022-12-31T13:57:41.889Z,100.00
2022-12-31T13:58:48.920Z,100.00
2022-12-31T13:59:53.928Z,100.00
2022-12-31T14:01:00.096Z,100.00
2022-12-31T14:02:10.083Z,100.00
2022-12-31T14:03:16.664Z,100.00
2022-12-31T14:04:27.032Z,100.00
2022-12-31T14:05:34.809Z,100.00
2022-12-31T14:06:46.680Z,100.00
2022-12-31T14:07:51.143Z,100.00
2022-12-31T14:08:53.404Z,100.00
2022-12-31T14:09:57.639Z,100.00
2022-12-31T14:11:15.021Z,100.00
2022-12-31T14:12:22.900Z,100.00
2022-12-31T14:13:34.295Z,100.00
2022-12-31T14:14:45.919Z,100.00
2022-12-31T14:15:50.883Z,100.00
2022-12-31T14:17:01.571Z,100.00
2022-12-31T14:18:06.108Z,100.00
2022-12-31T14:19:11.260Z,100.00
2022-12-31T14:20:24.231Z,100.00
2022-12-31T14:21:32.826Z,100.00
2022-12-31T14:22:40.061Z,100.00
2022-12-31T14:24:00.937Z,100.00
2022-12-31T14:25:06.325Z,100.00
2022-12-31T14:26:12.460Z,100.00
2022-12-31T14:27:23.563Z,100.00
2022-12-31T14:28:46.705Z,100.00
2022-12-31T14:29:57.322Z,100.00
2022-12-31T14:31:03.532Z,100.00
2022-12-31T14:32:28.767Z,100.00
2022-12-31T14:33:34.773Z,100.00
2022-12-31T14:34:56.053Z,100.00
2022-12-31T14:36:10.170Z,100.00
2022-12-31T14:37:16.418Z,100.00
2022-12-31T14:38:22.637Z,100.00
2022-12-31T14:39:27.610Z,100.00
2022-12-31T14:40:47.726Z,100.00
2022-12-31T14:41:55.601Z,100.00
2022-12-31T14:43:03.717Z,100.00
2022-12-31T14:44:12.511Z,100.00
2022-12-31T14:45:23.575Z,100.00
2022-12-31T14:46:31.553Z,100.00
2022-12-31T14:47:42.792Z,100.00
2022-12-31T14:48:48.081Z,100.00
2022-12-31T14:49:53.077Z,100.00
2022-12-31T14:50:59.311Z,100.00
2022-12-31T14:52:21.870Z,100.00
2022-12-31T14:53:26.533Z,100.00
2022-12-31T14:54:31.557Z,100.00
2022-12-31T14:55:36.189Z,100.00
2022-12-31T14:56:44.261Z,100.00
2022-12-31T14:58:59.218Z,100.00
2022-12-31T15:00:04.385Z,100.00
2022-12-31T15:01:11.851Z,100.00
2022-12-31T15:02:28.823Z,100.00
2022-12-31T15:03:38.956Z,100.00
2022-12-31T15:04:45.989Z,100.00
2022-12-31T15:05:57.941Z,100.00
2022-12-31T15:07:04.155Z,100.00
2022-12-31T15:08:23.327Z,100.00
2022-12-31T15:09:45.221Z,100.00
2022-12-31T15:11:00.876Z,100.00
2022-12-31T15:12:08.019Z,100.00
2022-12-31T15:13:15.678Z,100.00
2022-12-31T15:14:21.946Z,100.00
2022-12-31T15:15:42.866Z,100.00
2022-12-31T15:17:01.221Z,100.00
2022-12-31T15:18:19.951Z,100.00
2022-12-31T15:19:25.052Z,100.00
2022-12-31T15:20:44.294Z,100.00
2022-12-31T15:21:49.488Z,100.00
2022-12-31T15:22:52.877Z,100.00
2022-12-31T15:23:57.219Z,100.00
2022-12-31T15:25:01.462Z,100.00
2022-12-31T15:26:06.039Z,100.00
2022-12-31T15:27:10.122Z,100.00
2022-12-31T15:28:31.684Z,100.00
2022-12-31T15:29:37.689Z,100.00
2022-12-31T15:30:43.769Z,100.00
2022-12-31T15:31:48.077Z,100.00
2022-12-31T15:32:51.462Z,100.00
2022-12-31T15:33:59.688Z,100.00
2022-12-31T15:35:04.209Z,100.00
2022-12-31T15:36:15.655Z,100.00
2022-12-31T15:37:29.724Z,100.00
2022-12-31T15:38:35.662Z,100.00
2022-12-31T15:39:41.511Z,100.00
2022-12-31T15:40:46.814Z,100.00
2022-12-31T15:42:56.951Z,100.00
2022-12-31T15:44:01.201Z,100.00
2022-12-31T15:45:06.897Z,100.00
2022-12-31T15:46:12.338Z,100.00
2022-12-31T15:47:22.996Z,100.00
2022-12-31T15:48:33.071Z,100.00
2022-12-31T15:49:38.939Z,100.00
2022-12-31T15:50:46.358Z,100.00
2022-12-31T15:51:50.799Z,100.00
2022-12-31T15:52:54.925Z,100.00
2022-12-31T15:53:58.551Z,100.00
2022-12-31T15:55:07.123Z,100.00
2022-12-31T15:56:17.891Z,100.00
2022-12-31T15:57:31.209Z,100.00
2022-12-31T15:58:42.013Z,100.00
2022-12-31T15:59:47.016Z,100.00
2022-12-31T16:00:55.284Z,100.00
2022-12-31T16:01:58.831Z,100.00
2022-12-31T16:03:04.203Z,100.00
2022-12-31T16:04:13.231Z,100.00
2022-12-31T16:05:23.215Z,100.00
2022-12-31T16:06:28.485Z,100.00
2022-12-31T16:07:31.352Z,100.00
2022-12-31T16:08:35.595Z,100.00
2022-12-31T16:09:43.967Z,100.00
2022-12-31T16:10:46.806Z,100.00
2022-12-31T16:11:50.735Z,100.00
2022-12-31T16:12:54.312Z,100.00
2022-12-31T16:13:59.709Z,100.00
2022-12-31T16:15:02.782Z,100.00
2022-12-31T16:16:08.762Z,100.00
2022-12-31T16:17:29.545Z,100.00
2022-12-31T16:18:43.187Z,100.00
2022-12-31T16:19:49.251Z,100.00
2022-12-31T16:20:54.472Z,100.00
2022-12-31T16:22:00.825Z,100.00
2022-12-31T16:23:06.002Z,100.00
2022-12-31T16:24:26.816Z,100.00
2022-12-31T16:25:32.851Z,100.00
2022-12-31T16:26:47.510Z,100.00
2022-12-31T16:27:53.895Z,100.00
2022-12-31T16:28:59.982Z,100.00
2022-12-31T16:30:07.851Z,100.00
2022-12-31T16:31:17.992Z,100.00
2022-12-31T16:32:22.069Z,100.00
2022-12-31T16:33:26.804Z,100.00
2022-12-31T16:34:35.128Z,100.00
2022-12-31T16:35:38.742Z,100.00
2022-12-31T16:36:41.825Z,100.00
2022-12-31T16:37:45.852Z,100.00
2022-12-31T16:38:49.700Z,100.00
2022-12-31T16:39:57.199Z,100.00
2022-12-31T16:41:04.307Z,100.00
2022-12-31T16:42:21.375Z,100.00
2022-12-31T16:43:27.082Z,100.00
2022-12-31T16:44:31.107Z,100.00
2022-12-31T16:45:36.747Z,100.00
2022-12-31T16:46:41.511Z,100.00
2022-12-31T16:47:45.598Z,100.00
2022-12-31T16:48:50.315Z,100.00
2022-12-31T16:49:58.445Z,100.00
2022-12-31T16:51:02.928Z,100.00
2022-12-31T16:52:09.007Z,100.00
2022-12-31T16:53:14.717Z,100.00
2022-12-31T16:54:23.361Z,100.00
2022-12-31T16:55:28.399Z,100.00
2022-12-31T16:56:35.978Z,100.00
2022-12-31T16:57:40.130Z,100.00
2022-12-31T16:58:46.689Z,100.00
2022-12-31T16:59:51.756Z,100.00
2022-12-31T17:00:55.858Z,100.00
2022-12-31T17:02:01.151Z,100.00
2022-12-31T17:03:09.810Z,100.00
2022-12-31T17:04:14.635Z,100.00
2022-12-31T17:05:19.281Z,100.00
2022-12-31T17:06:24.351Z,100.00
2022-12-31T17:07:32.515Z,100.00
2022-12-31T17:08:40.414Z,100.00
2022-12-31T17:09:45.019Z,100.00
2022-12-31T17:10:48.711Z,100.00
2022-12-31T17:11:59.005Z,100.00
2022-12-31T17:14:13.658Z,100.00
2022-12-31T17:15:18.950Z,100.00
2022-12-31T17:16:22.353Z,100.00
2022-12-31T17:17:27.711Z,100.00
2022-12-31T17:18:32.791Z,100.00
2022-12-31T17:19:40.246Z,100.00
2022-12-31T17:20:43.548Z,100.00
2022-12-31T17:21:47.813Z,100.00
2022-12-31T17:22:54.026Z,100.00
2022-12-31T17:23:58.243Z,100.00
2022-12-31T17:25:09.247Z,100.00
2022-12-31T17:26:17.053Z,100.00
2022-12-31T17:27:21.970Z,100.00
2022-12-31T17:28:27.977Z,100.00
2022-12-31T17:29:31.425Z,100.00
2022-12-31T17:30:35.659Z,100.00
2022-12-31T17:31:40.000Z,100.00
2022-12-31T17:32:45.482Z,100.00
2022-12-31T17:33:49.003Z,100.00
2022-12-31T17:34:51.246Z,100.00
2022-12-31T17:35:58.728Z,100.00
2022-12-31T17:37:17.465Z,100.00
2022-12-31T17:38:24.950Z,100.00
2022-12-31T17:39:30.761Z,100.00
2022-12-31T17:40:51.011Z,100.00
2022-12-31T17:41:45.505Z,100.00
2022-12-31T17:42:49.946Z,100.00
2022-12-31T17:43:56.714Z,100.00
2022-12-31T17:45:01.757Z,100.00
2022-12-31T17:46:14.427Z,100.00
2022-12-31T17:47:20.667Z,100.00
2022-12-31T17:48:26.360Z,100.00
2022-12-31T17:49:32.312Z,100.00
2022-12-31T17:50:35.682Z,100.00
2022-12-31T17:51:41.279Z,100.00
2022-12-31T17:52:43.516Z,100.00
2022-12-31T17:53:48.076Z,100.00
2022-12-31T17:54:50.225Z,100.00
2022-12-31T17:55:54.672Z,100.00
2022-12-31T17:56:58.374Z,100.00
2022-12-31T17:58:02.400Z,100.00
2022-12-31T17:59:06.123Z,100.00
2022-12-31T18:00:13.582Z,100.00
2022-12-31T18:01:18.828Z,100.00
2022-12-31T18:02:23.279Z,100.00
2022-12-31T18:03:26.650Z,100.00
2022-12-31T18:04:32.246Z,100.00
2022-12-31T18:05:35.931Z,100.00
2022-12-31T18:06:39.200Z,100.00
2022-12-31T18:07:42.831Z,100.00
2022-12-31T18:08:46.116Z,100.00
2022-12-31T18:09:50.173Z,100.00
2022-12-31T18:10:54.798Z,100.00
2022-12-31T18:12:01.492Z,100.00
2022-12-31T18:13:05.260Z,100.00
2022-12-31T18:14:10.860Z,100.00
2022-12-31T18:15:17.700Z,100.00
2022-12-31T18:16:21.196Z,100.00
2022-12-31T18:17:24.822Z,100.00
2022-12-31T18:18:30.431Z,100.00
2022-12-31T18:20:40.500Z,100.00
2022-12-31T18:21:45.263Z,100.00
2022-12-31T18:22:51.098Z,100.00
2022-12-31T18:24:56.490Z,100.00
2022-12-31T18:25:58.605Z,100.00
2022-12-31T18:27:02.001Z,100.00
2022-12-31T18:28:10.150Z,100.00
2022-12-31T18:29:18.520Z,100.00
2022-12-31T18:30:23.802Z,100.00
2022-12-31T18:31:28.330Z,100.00
2022-12-31T18:32:33.739Z,100.00
2022-12-31T18:33:38.480Z,100.00
2022-12-31T18:34:41.894Z,100.00
2022-12-31T18:36:50.367Z,100.00
2022-12-31T18:37:53.692Z,100.00
2022-12-31T18:38:56.546Z,100.00
2022-12-31T18:40:01.777Z,100.00
2022-12-31T18:41:06.058Z,100.00
2022-12-31T18:42:11.015Z,100.00
2022-12-31T18:43:16.682Z,100.00
2022-12-31T18:44:19.067Z,100.00
2022-12-31T18:45:24.442Z,100.00
2022-12-31T18:46:29.389Z,100.00
2022-12-31T18:47:37.634Z,100.00
2022-12-31T18:48:38.636Z,100.00
2022-12-31T18:49:42.558Z,100.00
2022-12-31T18:50:46.607Z,100.00
2022-12-31T18:51:51.123Z,100.00
2022-12-31T18:52:54.419Z,100.00
2022-12-31T18:53:57.205Z,100.00
2022-12-31T18:54:59.871Z,100.00
2022-12-31T18:56:04.203Z,100.00
2022-12-31T18:57:07.825Z,100.00
2022-12-31T18:58:10.925Z,100.00
2022-12-31T18:59:14.300Z,100.00
2022-12-31T19:00:18.015Z,100.00
2022-12-31T19:01:35.400Z,100.00
2022-12-31T19:02:38.962Z,100.00
2022-12-31T19:03:41.703Z,100.00
2022-12-31T19:04:44.268Z,100.00
2022-12-31T19:05:51.769Z,100.00
2022-12-31T19:06:55.139Z,100.00
2022-12-31T19:07:58.431Z,100.00
2022-12-31T19:09:01.348Z,100.00
2022-12-31T19:10:04.922Z,100.00
2022-12-31T19:11:11.054Z,100.00
2022-12-31T19:12:15.613Z,100.00
2022-12-31T19:13:20.140Z,100.00
2022-12-31T19:14:24.887Z,100.00
2022-12-31T19:15:30.408Z,100.00
2022-12-31T19:16:33.091Z,100.00
2022-12-31T19:17:35.728Z,100.00
2022-12-31T19:18:39.087Z,100.00
2022-12-31T19:19:42.528Z,100.00
2022-12-31T19:20:45.080Z,100.00
2022-12-31T19:21:48.803Z,100.00
2022-12-31T19:22:51.273Z,100.00
2022-12-31T19:23:54.501Z,100.00
2022-12-31T19:24:57.759Z,100.00
2022-12-31T19:26:02.150Z,100.00
2022-12-31T19:27:08.227Z,100.00
2022-12-31T19:28:18.177Z,100.00
2022-12-31T19:29:21.801Z,100.00
2022-12-31T19:30:29.685Z,100.00
2022-12-31T19:31:33.648Z,100.00
2022-12-31T19:32:36.493Z,100.00
2022-12-31T19:33:39.703Z,100.00
2022-12-31T19:34:42.348Z,100.00
2022-12-31T19:35:46.163Z,100.00
2022-12-31T19:36:49.591Z,100.00
2022-12-31T19:37:53.918Z,100.00
2022-12-31T19:38:58.466Z,100.00
2022-12-31T19:40:01.974Z,100.00
2022-12-31T19:41:05.318Z,100.00
2022-12-31T19:42:09.848Z,100.00
2022-12-31T19:43:13.934Z,100.00
2022-12-31T19:44:18.388Z,100.00
2022-12-31T19:45:23.345Z,100.00
2022-12-31T19:46:29.333Z,100.00
2022-12-31T19:47:32.790Z,100.00
2022-12-31T19:48:36.603Z,100.00
2022-12-31T19:49:39.871Z,100.00
2022-12-31T19:50:47.427Z,100.00
2022-12-31T19:51:54.230Z,100.00
2022-12-31T19:54:13.037Z,100.00
2022-12-31T19:55:19.331Z,100.00
2022-12-31T19:56:21.999Z,100.00
2022-12-31T19:57:24.681Z,100.00
2022-12-31T19:58:28.531Z,100.00
2022-12-31T19:59:32.069Z,100.00
2022-12-31T20:00:37.493Z,100.00
2022-12-31T20:01:41.633Z,100.00
2022-12-31T20:02:46.145Z,100.00
2022-12-31T20:03:49.369Z,100.00
2022-12-31T20:04:53.915Z,100.00
2022-12-31T20:06:06.202Z,100.00
2022-12-31T20:07:10.221Z,100.00
2022-12-31T20:08:15.188Z,100.00
2022-12-31T20:09:18.588Z,100.00
2022-12-31T20:10:21.995Z,100.00
2022-12-31T20:11:24.874Z,100.00
2022-12-31T20:12:29.729Z,100.00
2022-12-31T20:13:35.938Z,100.00
2022-12-31T20:14:39.873Z,100.00
2022-12-31T20:15:44.236Z,100.00
2022-12-31T20:16:48.815Z,100.00
2022-12-31T20:17:52.374Z,100.00
2022-12-31T20:18:55.247Z,100.00
2022-12-31T20:20:00.389Z,100.00
2022-12-31T20:21:03.642Z,100.00
2022-12-31T20:22:07.122Z,100.00
2022-12-31T20:23:10.528Z,100.00
2022-12-31T20:24:16.624Z,100.00
2022-12-31T20:25:19.103Z,100.00
2022-12-31T20:26:23.458Z,100.00
2022-12-31T20:27:26.740Z,100.00
2022-12-31T20:28:30.664Z,100.00
2022-12-31T20:29:32.903Z,100.00
2022-12-31T20:30:38.418Z,100.00
2022-12-31T20:31:42.128Z,100.00
2022-12-31T20:32:46.281Z,100.00
2022-12-31T20:33:50.343Z,100.00
2022-12-31T20:34:52.823Z,100.00
2022-12-31T20:35:58.006Z,100.00
2022-12-31T20:37:02.882Z,100.00
2022-12-31T20:38:06.384Z,100.00
2022-12-31T20:39:10.064Z,100.00
2022-12-31T20:40:13.912Z,100.00
2022-12-31T20:41:18.990Z,100.00
2022-12-31T20:42:22.396Z,100.00
2022-12-31T20:43:27.177Z,100.00
2022-12-31T20:44:30.345Z,100.00
2022-12-31T20:45:33.639Z,100.00
2022-12-31T20:46:37.912Z,100.00
2022-12-31T20:47:41.586Z,100.00
2022-12-31T20:48:45.923Z,100.00
2022-12-31T20:50:58.039Z,100.00
2022-12-31T20:52:06.093Z,100.00
2022-12-31T20:53:09.363Z,100.00
2022-12-31T20:54:12.855Z,100.00
2022-12-31T20:55:16.462Z,100.00
2022-12-31T20:56:22.707Z,100.00
2022-12-31T20:57:31.597Z,100.00
2022-12-31T20:58:31.684Z,100.00
2022-12-31T20:59:35.977Z,100.00
2022-12-31T21:00:39.206Z,100.00
2022-12-31T21:02:19.609Z,100.00
2022-12-31T21:02:55.520Z,100.00
2022-12-31T21:04:05.051Z,100.00
2022-12-31T21:05:02.086Z,100.00
2022-12-31T21:06:06.161Z,100.00
2022-12-31T21:07:09.637Z,100.00
2022-12-31T21:08:13.037Z,100.00
2022-12-31T21:09:16.334Z,100.00
2022-12-31T21:10:22.684Z,100.00
2022-12-31T21:11:47.058Z,100.00
2022-12-31T21:12:53.496Z,100.00
2022-12-31T21:13:58.036Z,100.00
2022-12-31T21:15:02.521Z,100.00
2022-12-31T21:16:05.720Z,100.00
2022-12-31T21:17:09.018Z,100.00
2022-12-31T21:18:12.679Z,100.00
2022-12-31T21:19:15.127Z,100.00
2022-12-31T21:20:19.684Z,100.00
2022-12-31T21:21:25.793Z,100.00
2022-12-31T21:22:31.724Z,100.00
2022-12-31T21:23:34.925Z,100.00